sensor_id;sensor_type;location;lat;lon;timestamp;temperature;humidity
59146;DHT22;44928;53.074;6.646;2022-12-18T00:00:30;-2.80;99.90
59146;DHT22;44928;53.074;6.646;2022-12-18T00:02:56;-2.80;99.90
59146;DHT22;44928;53.074;6.646;2022-12-18T00:05:22;-2.80;99.90
59146;DHT22;44928;53.074;6.646;2022-12-18T00:07:47;-2.80;99.90
59146;DHT22;44928;53.074;6.646;2022-12-18T00:10:13;-2.80;99.90
59146;DHT22;44928;53.074;6.646;2022-12-18T00:12:39;-2.80;99.90
59146;DHT22;44928;53.074;6.646;2022-12-18T00:15:05;-2.80;99.90
59146;DHT22;44928;53.074;6.646;2022-12-18T00:17:31;-2.90;99.90
59146;DHT22;44928;53.074;6.646;2022-12-18T00:19:57;-2.80;99.90
59146;DHT22;44928;53.074;6.646;2022-12-18T00:22:22;-2.80;99.90
59146;DHT22;44928;53.074;6.646;2022-12-18T00:24:48;-2.90;99.90
59146;DHT22;44928;53.074;6.646;2022-12-18T00:27:14;-3.00;99.90
59146;DHT22;44928;53.074;6.646;2022-12-18T00:29:40;-3.00;99.90
59146;DHT22;44928;53.074;6.646;2022-12-18T00:32:05;-3.00;99.90
59146;DHT22;44928;53.074;6.646;2022-12-18T00:34:31;-3.00;99.90
59146;DHT22;44928;53.074;6.646;2022-12-18T00:36:57;-3.00;99.90
59146;DHT22;44928;53.074;6.646;2022-12-18T00:39:22;-3.10;99.90
59146;DHT22;44928;53.074;6.646;2022-12-18T00:41:48;-3.00;99.90
59146;DHT22;44928;53.074;6.646;2022-12-18T00:44:32;-3.00;99.90
59146;DHT22;44928;53.074;6.646;2022-12-18T00:46:58;-3.00;99.90
59146;DHT22;44928;53.074;6.646;2022-12-18T00:49:24;-3.00;99.90
59146;DHT22;44928;53.074;6.646;2022-12-18T00:51:50;-3.00;99.90
59146;DHT22;44928;53.074;6.646;2022-12-18T00:54:16;-3.00;99.90
59146;DHT22;44928;53.074;6.646;2022-12-18T00:56:42;-3.00;99.90
59146;DHT22;44928;53.074;6.646;2022-12-18T00:59:08;-3.00;99.90
59146;DHT22;44928;53.074;6.646;2022-12-18T01:01:34;-3.00;99.90
59146;DHT22;44928;53.074;6.646;2022-12-18T01:04:02;-3.00;99.90
59146;DHT22;44928;53.074;6.646;2022-12-18T01:06:28;-3.10;99.90
59146;DHT22;44928;53.074;6.646;2022-12-18T01:08:54;-3.00;99.90
59146;DHT22;44928;53.074;6.646;2022-12-18T01:11:21;-3.00;99.90
59146;DHT22;44928;53.074;6.646;2022-12-18T01:13:47;-3.00;99.90
59146;DHT22;44928;53.074;6.646;2022-12-18T01:16:14;-3.10;99.90
59146;DHT22;44928;53.074;6.646;2022-12-18T01:18:40;-3.10;99.90
59146;DHT22;44928;53.074;6.646;2022-12-18T01:21:08;-3.10;99.90
59146;DHT22;44928;53.074;6.646;2022-12-18T01:23:34;-3.10;99.90
59146;DHT22;44928;53.074;6.646;2022-12-18T01:26:09;-3.20;99.90
59146;DHT22;44928;53.074;6.646;2022-12-18T01:28:35;-3.20;99.90
59146;DHT22;44928;53.074;6.646;2022-12-18T01:31:23;-3.20;99.90
59146;DHT22;44928;53.074;6.646;2022-12-18T01:33:51;-3.20;99.90
59146;DHT22;44928;53.074;6.646;2022-12-18T01:36:20;-3.20;99.90
59146;DHT22;44928;53.074;6.646;2022-12-18T01:38:46;-3.20;99.90
59146;DHT22;44928;53.074;6.646;2022-12-18T01:41:13;-3.20;99.90
59146;DHT22;44928;53.074;6.646;2022-12-18T01:46:12;-3.20;99.90
59146;DHT22;44928;53.074;6.646;2022-12-18T01:48:39;-3.20;99.90
59146;DHT22;44928;53.074;6.646;2022-12-18T01:51:06;-3.20;99.90
59146;DHT22;44928;53.074;6.646;2022-12-18T01:53:33;-3.30;99.90
59146;DHT22;44928;53.074;6.646;2022-12-18T01:55:59;-3.30;99.90
59146;DHT22;44928;53.074;6.646;2022-12-18T02:01:09;-3.40;99.90
59146;DHT22;44928;53.074;6.646;2022-12-18T02:03:35;-3.40;99.90
59146;DHT22;44928;53.074;6.646;2022-12-18T02:06:11;-3.40;99.90
59146;DHT22;44928;53.074;6.646;2022-12-18T02:09:13;-3.40;99.90
59146;DHT22;44928;53.074;6.646;2022-12-18T02:17:17;-3.50;99.90
59146;DHT22;44928;53.074;6.646;2022-12-18T02:27:39;-3.60;99.90
59146;DHT22;44928;53.074;6.646;2022-12-18T02:30:07;-3.60;99.90
59146;DHT22;44928;53.074;6.646;2022-12-18T02:32:40;-3.50;99.90
59146;DHT22;44928;53.074;6.646;2022-12-18T02:35:11;-3.40;99.90
59146;DHT22;44928;53.074;6.646;2022-12-18T02:37:37;-3.40;99.90
59146;DHT22;44928;53.074;6.646;2022-12-18T02:40:04;-3.40;99.90
59146;DHT22;44928;53.074;6.646;2022-12-18T02:42:30;-3.40;99.90
59146;DHT22;44928;53.074;6.646;2022-12-18T02:44:57;-3.40;99.90
59146;DHT22;44928;53.074;6.646;2022-12-18T02:47:24;-3.40;99.90
59146;DHT22;44928;53.074;6.646;2022-12-18T02:58:20;-3.40;99.90
59146;DHT22;44928;53.074;6.646;2022-12-18T03:01:16;-3.40;99.90
59146;DHT22;44928;53.074;6.646;2022-12-18T03:03:55;-3.40;99.90
59146;DHT22;44928;53.074;6.646;2022-12-18T03:06:30;-3.50;99.90
59146;DHT22;44928;53.074;6.646;2022-12-18T03:09:04;-3.50;99.90
59146;DHT22;44928;53.074;6.646;2022-12-18T03:11:34;-3.50;99.90
59146;DHT22;44928;53.074;6.646;2022-12-18T03:14:22;-3.60;99.90
59146;DHT22;44928;53.074;6.646;2022-12-18T03:16:52;-3.60;99.90
59146;DHT22;44928;53.074;6.646;2022-12-18T03:19:21;-3.60;99.90
59146;DHT22;44928;53.074;6.646;2022-12-18T03:21:51;-3.70;99.90
59146;DHT22;44928;53.074;6.646;2022-12-18T03:24:19;-3.70;99.90
59146;DHT22;44928;53.074;6.646;2022-12-18T03:26:50;-3.70;99.90
59146;DHT22;44928;53.074;6.646;2022-12-18T03:29:18;-3.70;99.90
59146;DHT22;44928;53.074;6.646;2022-12-18T03:31:51;-3.70;99.90
59146;DHT22;44928;53.074;6.646;2022-12-18T03:34:32;-3.60;99.90
59146;DHT22;44928;53.074;6.646;2022-12-18T03:36:59;-3.70;99.90
59146;DHT22;44928;53.074;6.646;2022-12-18T03:39:25;-3.70;99.90
59146;DHT22;44928;53.074;6.646;2022-12-18T03:47:22;-3.70;99.90
59146;DHT22;44928;53.074;6.646;2022-12-18T03:50:03;-3.70;99.90
59146;DHT22;44928;53.074;6.646;2022-12-18T03:52:34;-3.70;99.90
59146;DHT22;44928;53.074;6.646;2022-12-18T03:55:03;-3.70;99.90
59146;DHT22;44928;53.074;6.646;2022-12-18T03:57:32;-3.80;99.90
59146;DHT22;44928;53.074;6.646;2022-12-18T04:00:13;-3.80;99.90
59146;DHT22;44928;53.074;6.646;2022-12-18T04:02:44;-3.80;99.90
59146;DHT22;44928;53.074;6.646;2022-12-18T04:05:10;-3.90;99.90
59146;DHT22;44928;53.074;6.646;2022-12-18T04:07:37;-3.90;99.90
59146;DHT22;44928;53.074;6.646;2022-12-18T04:10:07;-4.00;99.90
59146;DHT22;44928;53.074;6.646;2022-12-18T04:12:34;-4.00;99.90
59146;DHT22;44928;53.074;6.646;2022-12-18T04:15:02;-4.00;99.90
59146;DHT22;44928;53.074;6.646;2022-12-18T04:17:28;-4.00;99.90
59146;DHT22;44928;53.074;6.646;2022-12-18T04:19:54;-4.00;99.90
59146;DHT22;44928;53.074;6.646;2022-12-18T04:22:19;-4.00;99.90
59146;DHT22;44928;53.074;6.646;2022-12-18T04:24:45;-4.00;99.90
59146;DHT22;44928;53.074;6.646;2022-12-18T04:27:11;-4.00;99.90
59146;DHT22;44928;53.074;6.646;2022-12-18T04:29:37;-4.10;99.90
59146;DHT22;44928;53.074;6.646;2022-12-18T04:32:02;-4.10;99.90
59146;DHT22;44928;53.074;6.646;2022-12-18T04:34:28;-4.20;99.90
59146;DHT22;44928;53.074;6.646;2022-12-18T04:36:54;-4.20;99.90
59146;DHT22;44928;53.074;6.646;2022-12-18T04:39:20;-4.30;99.90
59146;DHT22;44928;53.074;6.646;2022-12-18T04:41:46;-4.20;99.90
59146;DHT22;44928;53.074;6.646;2022-12-18T04:44:11;-4.30;99.90
59146;DHT22;44928;53.074;6.646;2022-12-18T04:46:37;-4.30;99.90
59146;DHT22;44928;53.074;6.646;2022-12-18T04:49:03;-4.30;99.90
59146;DHT22;44928;53.074;6.646;2022-12-18T04:51:28;-4.30;99.90
59146;DHT22;44928;53.074;6.646;2022-12-18T04:53:54;-4.30;99.90
59146;DHT22;44928;53.074;6.646;2022-12-18T04:56:20;-4.20;99.90
59146;DHT22;44928;53.074;6.646;2022-12-18T04:58:46;-4.20;99.90
59146;DHT22;44928;53.074;6.646;2022-12-18T05:01:16;-4.20;99.90
59146;DHT22;44928;53.074;6.646;2022-12-18T05:03:42;-4.20;99.90
59146;DHT22;44928;53.074;6.646;2022-12-18T05:06:08;-4.30;99.90
59146;DHT22;44928;53.074;6.646;2022-12-18T05:08:34;-4.30;99.90
59146;DHT22;44928;53.074;6.646;2022-12-18T05:11:01;-4.20;99.90
59146;DHT22;44928;53.074;6.646;2022-12-18T05:13:28;-4.20;99.90
59146;DHT22;44928;53.074;6.646;2022-12-18T05:15:54;-4.20;99.90
59146;DHT22;44928;53.074;6.646;2022-12-18T05:18:20;-4.20;99.90
59146;DHT22;44928;53.074;6.646;2022-12-18T05:20:46;-4.20;99.90
59146;DHT22;44928;53.074;6.646;2022-12-18T05:23:12;-4.20;99.90
59146;DHT22;44928;53.074;6.646;2022-12-18T05:25:38;-4.20;99.90
59146;DHT22;44928;53.074;6.646;2022-12-18T05:28:04;-4.20;99.90
59146;DHT22;44928;53.074;6.646;2022-12-18T05:30:30;-4.20;99.90
59146;DHT22;44928;53.074;6.646;2022-12-18T05:32:55;-4.20;99.90
59146;DHT22;44928;53.074;6.646;2022-12-18T05:35:21;-4.20;99.90
59146;DHT22;44928;53.074;6.646;2022-12-18T05:37:47;-4.20;99.90
59146;DHT22;44928;53.074;6.646;2022-12-18T05:40:13;-4.20;99.90
59146;DHT22;44928;53.074;6.646;2022-12-18T05:42:39;-4.20;99.90
59146;DHT22;44928;53.074;6.646;2022-12-18T05:45:05;-4.20;99.90
59146;DHT22;44928;53.074;6.646;2022-12-18T05:47:31;-4.20;99.90
59146;DHT22;44928;53.074;6.646;2022-12-18T05:49:57;-4.20;99.90
59146;DHT22;44928;53.074;6.646;2022-12-18T05:52:23;-4.20;99.90
59146;DHT22;44928;53.074;6.646;2022-12-18T05:54:49;-4.30;99.90
59146;DHT22;44928;53.074;6.646;2022-12-18T05:57:15;-4.30;99.90
59146;DHT22;44928;53.074;6.646;2022-12-18T06:02:07;-4.40;99.90
59146;DHT22;44928;53.074;6.646;2022-12-18T06:04:33;-4.40;99.90
59146;DHT22;44928;53.074;6.646;2022-12-18T06:06:59;-4.50;99.90
59146;DHT22;44928;53.074;6.646;2022-12-18T06:09:24;-4.50;99.90
59146;DHT22;44928;53.074;6.646;2022-12-18T06:11:52;-4.50;99.90
59146;DHT22;44928;53.074;6.646;2022-12-18T06:14:18;-4.60;99.90
59146;DHT22;44928;53.074;6.646;2022-12-18T06:16:44;-4.60;99.90
59146;DHT22;44928;53.074;6.646;2022-12-18T06:19:14;-4.60;99.90
59146;DHT22;44928;53.074;6.646;2022-12-18T06:21:40;-4.60;99.90
59146;DHT22;44928;53.074;6.646;2022-12-18T06:24:06;-4.70;99.90
59146;DHT22;44928;53.074;6.646;2022-12-18T06:26:32;-4.70;99.90
59146;DHT22;44928;53.074;6.646;2022-12-18T06:28:58;-4.70;99.90
59146;DHT22;44928;53.074;6.646;2022-12-18T06:31:24;-4.70;99.90
59146;DHT22;44928;53.074;6.646;2022-12-18T06:33:50;-4.70;99.90
59146;DHT22;44928;53.074;6.646;2022-12-18T06:36:16;-4.70;99.90
59146;DHT22;44928;53.074;6.646;2022-12-18T06:38:43;-4.70;99.90
59146;DHT22;44928;53.074;6.646;2022-12-18T06:41:14;-4.70;99.90
59146;DHT22;44928;53.074;6.646;2022-12-18T06:43:40;-4.70;99.90
59146;DHT22;44928;53.074;6.646;2022-12-18T06:46:07;-4.70;99.90
59146;DHT22;44928;53.074;6.646;2022-12-18T06:48:33;-4.70;99.90
59146;DHT22;44928;53.074;6.646;2022-12-18T06:50:59;-4.60;99.90
59146;DHT22;44928;53.074;6.646;2022-12-18T06:53:25;-4.70;99.90
59146;DHT22;44928;53.074;6.646;2022-12-18T06:55:51;-4.60;99.90
59146;DHT22;44928;53.074;6.646;2022-12-18T06:58:17;-4.60;99.90
59146;DHT22;44928;53.074;6.646;2022-12-18T07:00:43;-4.70;99.90
59146;DHT22;44928;53.074;6.646;2022-12-18T07:03:09;-4.70;99.90
59146;DHT22;44928;53.074;6.646;2022-12-18T07:05:40;-4.70;99.90
59146;DHT22;44928;53.074;6.646;2022-12-18T07:08:06;-4.70;99.90
59146;DHT22;44928;53.074;6.646;2022-12-18T07:10:32;-4.70;99.90
59146;DHT22;44928;53.074;6.646;2022-12-18T07:12:58;-4.80;99.90
59146;DHT22;44928;53.074;6.646;2022-12-18T07:15:23;-4.80;99.90
59146;DHT22;44928;53.074;6.646;2022-12-18T07:17:49;-4.80;99.90
59146;DHT22;44928;53.074;6.646;2022-12-18T07:20:15;-4.80;99.90
59146;DHT22;44928;53.074;6.646;2022-12-18T07:22:41;-4.90;99.90
59146;DHT22;44928;53.074;6.646;2022-12-18T07:25:07;-4.90;99.90
59146;DHT22;44928;53.074;6.646;2022-12-18T07:27:33;-4.80;99.90
59146;DHT22;44928;53.074;6.646;2022-12-18T07:29:58;-4.90;99.90
59146;DHT22;44928;53.074;6.646;2022-12-18T07:32:24;-4.90;99.90
59146;DHT22;44928;53.074;6.646;2022-12-18T07:34:50;-4.90;99.90
59146;DHT22;44928;53.074;6.646;2022-12-18T07:37:15;-4.90;99.90
59146;DHT22;44928;53.074;6.646;2022-12-18T07:39:41;-5.00;99.90
59146;DHT22;44928;53.074;6.646;2022-12-18T07:42:10;-5.00;99.90
59146;DHT22;44928;53.074;6.646;2022-12-18T07:44:54;-4.90;99.90
59146;DHT22;44928;53.074;6.646;2022-12-18T07:47:20;-4.90;99.90
59146;DHT22;44928;53.074;6.646;2022-12-18T07:49:45;-4.90;99.90
59146;DHT22;44928;53.074;6.646;2022-12-18T07:52:11;-4.90;99.90
59146;DHT22;44928;53.074;6.646;2022-12-18T07:54:38;-4.90;99.90
59146;DHT22;44928;53.074;6.646;2022-12-18T07:57:04;-4.90;99.90
59146;DHT22;44928;53.074;6.646;2022-12-18T07:59:30;-4.90;99.90
59146;DHT22;44928;53.074;6.646;2022-12-18T08:01:55;-4.90;99.90
59146;DHT22;44928;53.074;6.646;2022-12-18T08:04:21;-4.90;99.90
59146;DHT22;44928;53.074;6.646;2022-12-18T08:06:47;-4.90;99.90
59146;DHT22;44928;53.074;6.646;2022-12-18T08:09:13;-4.90;99.90
59146;DHT22;44928;53.074;6.646;2022-12-18T08:11:39;-4.90;99.90
59146;DHT22;44928;53.074;6.646;2022-12-18T08:14:04;-4.90;99.90
59146;DHT22;44928;53.074;6.646;2022-12-18T08:16:30;-4.80;99.90
59146;DHT22;44928;53.074;6.646;2022-12-18T08:18:56;-4.80;99.90
59146;DHT22;44928;53.074;6.646;2022-12-18T08:21:25;-4.80;99.90
59146;DHT22;44928;53.074;6.646;2022-12-18T08:23:52;-4.70;99.90
59146;DHT22;44928;53.074;6.646;2022-12-18T08:26:19;-4.70;99.90
59146;DHT22;44928;53.074;6.646;2022-12-18T08:28:45;-4.60;99.90
59146;DHT22;44928;53.074;6.646;2022-12-18T08:31:11;-4.60;99.90
59146;DHT22;44928;53.074;6.646;2022-12-18T08:33:38;-4.60;99.90
59146;DHT22;44928;53.074;6.646;2022-12-18T08:36:05;-4.60;99.90
59146;DHT22;44928;53.074;6.646;2022-12-18T08:38:32;-4.50;99.90
59146;DHT22;44928;53.074;6.646;2022-12-18T08:41:03;-4.50;99.90
59146;DHT22;44928;53.074;6.646;2022-12-18T08:43:29;-4.50;99.90
59146;DHT22;44928;53.074;6.646;2022-12-18T08:46:14;-4.50;99.90
59146;DHT22;44928;53.074;6.646;2022-12-18T08:48:40;-4.50;99.90
59146;DHT22;44928;53.074;6.646;2022-12-18T08:51:05;-4.40;99.90
59146;DHT22;44928;53.074;6.646;2022-12-18T08:53:31;-4.40;99.90
59146;DHT22;44928;53.074;6.646;2022-12-18T08:55:57;-4.40;99.90
59146;DHT22;44928;53.074;6.646;2022-12-18T08:58:23;-4.40;99.90
59146;DHT22;44928;53.074;6.646;2022-12-18T09:00:49;-4.30;99.90
59146;DHT22;44928;53.074;6.646;2022-12-18T09:03:16;-4.30;99.90
59146;DHT22;44928;53.074;6.646;2022-12-18T09:05:43;-4.20;99.90
59146;DHT22;44928;53.074;6.646;2022-12-18T09:08:11;-4.20;99.90
59146;DHT22;44928;53.074;6.646;2022-12-18T09:10:48;-4.20;99.90
59146;DHT22;44928;53.074;6.646;2022-12-18T09:13:14;-4.10;99.90
59146;DHT22;44928;53.074;6.646;2022-12-18T09:15:52;-4.10;99.90
59146;DHT22;44928;53.074;6.646;2022-12-18T09:18:19;-4.00;99.90
59146;DHT22;44928;53.074;6.646;2022-12-18T09:20:46;-4.00;99.90
59146;DHT22;44928;53.074;6.646;2022-12-18T09:23:12;-3.90;99.90
59146;DHT22;44928;53.074;6.646;2022-12-18T09:25:38;-3.90;99.90
59146;DHT22;44928;53.074;6.646;2022-12-18T09:28:09;-3.90;99.90
59146;DHT22;44928;53.074;6.646;2022-12-18T09:30:41;-3.90;99.90
59146;DHT22;44928;53.074;6.646;2022-12-18T09:33:08;-3.90;99.90
59146;DHT22;44928;53.074;6.646;2022-12-18T09:35:36;-3.80;99.90
59146;DHT22;44928;53.074;6.646;2022-12-18T09:38:02;-3.80;99.90
59146;DHT22;44928;53.074;6.646;2022-12-18T09:40:34;-3.70;99.90
59146;DHT22;44928;53.074;6.646;2022-12-18T09:43:05;-3.60;99.90
59146;DHT22;44928;53.074;6.646;2022-12-18T09:45:40;-3.60;99.90
59146;DHT22;44928;53.074;6.646;2022-12-18T09:50:40;-3.50;99.90
59146;DHT22;44928;53.074;6.646;2022-12-18T09:53:12;-3.40;99.90
59146;DHT22;44928;53.074;6.646;2022-12-18T09:55:42;-3.30;99.90
59146;DHT22;44928;53.074;6.646;2022-12-18T09:58:48;-3.20;99.90
59146;DHT22;44928;53.074;6.646;2022-12-18T10:01:21;-3.20;99.90
59146;DHT22;44928;53.074;6.646;2022-12-18T10:03:48;-3.10;99.90
59146;DHT22;44928;53.074;6.646;2022-12-18T10:09:23;-3.00;99.90
59146;DHT22;44928;53.074;6.646;2022-12-18T10:20:05;-2.90;99.90
59146;DHT22;44928;53.074;6.646;2022-12-18T10:25:10;-2.90;99.90
59146;DHT22;44928;53.074;6.646;2022-12-18T10:27:40;-2.90;99.90
59146;DHT22;44928;53.074;6.646;2022-12-18T10:30:14;-2.90;99.90
59146;DHT22;44928;53.074;6.646;2022-12-18T10:32:41;-2.80;99.90
59146;DHT22;44928;53.074;6.646;2022-12-18T10:35:18;-2.80;99.90
59146;DHT22;44928;53.074;6.646;2022-12-18T10:38:04;-2.70;99.90
59146;DHT22;44928;53.074;6.646;2022-12-18T10:40:31;-2.70;99.90
59146;DHT22;44928;53.074;6.646;2022-12-18T10:43:12;-2.70;99.90
59146;DHT22;44928;53.074;6.646;2022-12-18T10:45:38;-2.60;99.90
59146;DHT22;44928;53.074;6.646;2022-12-18T10:48:05;-2.60;99.90
59146;DHT22;44928;53.074;6.646;2022-12-18T10:50:36;-2.60;99.90
59146;DHT22;44928;53.074;6.646;2022-12-18T10:53:04;-2.50;99.90
59146;DHT22;44928;53.074;6.646;2022-12-18T10:55:38;-2.50;99.90
59146;DHT22;44928;53.074;6.646;2022-12-18T10:58:26;-2.40;99.90
59146;DHT22;44928;53.074;6.646;2022-12-18T11:03:36;-2.30;99.90
59146;DHT22;44928;53.074;6.646;2022-12-18T11:06:07;-2.30;99.90
59146;DHT22;44928;53.074;6.646;2022-12-18T11:08:33;-2.20;99.90
59146;DHT22;44928;53.074;6.646;2022-12-18T11:10:59;-2.20;99.90
59146;DHT22;44928;53.074;6.646;2022-12-18T11:13:28;-2.20;99.90
59146;DHT22;44928;53.074;6.646;2022-12-18T11:15:54;-2.10;99.90
59146;DHT22;44928;53.074;6.646;2022-12-18T11:18:29;-2.00;99.90
59146;DHT22;44928;53.074;6.646;2022-12-18T11:21:15;-2.00;99.90
59146;DHT22;44928;53.074;6.646;2022-12-18T11:23:51;-1.90;99.90
59146;DHT22;44928;53.074;6.646;2022-12-18T11:26:18;-1.90;99.90
59146;DHT22;44928;53.074;6.646;2022-12-18T11:28:51;-1.90;99.90
59146;DHT22;44928;53.074;6.646;2022-12-18T11:36:45;-1.70;99.90
59146;DHT22;44928;53.074;6.646;2022-12-18T11:41:49;-1.60;99.90
59146;DHT22;44928;53.074;6.646;2022-12-18T11:44:52;-1.60;99.90
59146;DHT22;44928;53.074;6.646;2022-12-18T11:47:32;-1.50;99.90
59146;DHT22;44928;53.074;6.646;2022-12-18T11:50:05;-1.50;99.90
59146;DHT22;44928;53.074;6.646;2022-12-18T11:52:38;-1.40;99.90
59146;DHT22;44928;53.074;6.646;2022-12-18T11:58:19;-1.40;99.90
59146;DHT22;44928;53.074;6.646;2022-12-18T12:01:09;-1.30;99.90
59146;DHT22;44928;53.074;6.646;2022-12-18T12:16:55;-1.10;99.90
59146;DHT22;44928;53.074;6.646;2022-12-18T12:28:06;-1.00;99.90
59146;DHT22;44928;53.074;6.646;2022-12-18T12:38:50;-0.80;99.90
59146;DHT22;44928;53.074;6.646;2022-12-18T12:41:19;-0.80;99.90
59146;DHT22;44928;53.074;6.646;2022-12-18T12:44:08;-0.80;99.90
59146;DHT22;44928;53.074;6.646;2022-12-18T12:46:38;-0.80;99.90
59146;DHT22;44928;53.074;6.646;2022-12-18T12:49:19;-0.70;99.90
59146;DHT22;44928;53.074;6.646;2022-12-18T12:51:54;-0.70;99.90
59146;DHT22;44928;53.074;6.646;2022-12-18T12:54:24;-0.70;99.90
59146;DHT22;44928;53.074;6.646;2022-12-18T12:57:40;-0.60;99.90
59146;DHT22;44928;53.074;6.646;2022-12-18T13:05:38;-0.50;99.90
59146;DHT22;44928;53.074;6.646;2022-12-18T13:08:09;-0.50;99.90
59146;DHT22;44928;53.074;6.646;2022-12-18T13:10:41;-0.40;99.90
59146;DHT22;44928;53.074;6.646;2022-12-18T13:13:08;-0.40;99.90
59146;DHT22;44928;53.074;6.646;2022-12-18T13:20:44;-0.30;99.90
59146;DHT22;44928;53.074;6.646;2022-12-18T13:31:11;-0.30;99.90
59146;DHT22;44928;53.074;6.646;2022-12-18T13:39:09;-0.20;99.90
59146;DHT22;44928;53.074;6.646;2022-12-18T13:41:33;-0.20;99.90
59146;DHT22;44928;53.074;6.646;2022-12-18T13:44:12;-0.20;99.90
59146;DHT22;44928;53.074;6.646;2022-12-18T13:46:46;-0.20;99.90
59146;DHT22;44928;53.074;6.646;2022-12-18T13:51:41;-0.20;99.90
59146;DHT22;44928;53.074;6.646;2022-12-18T13:54:22;-0.20;99.90
59146;DHT22;44928;53.074;6.646;2022-12-18T13:56:49;-0.20;99.90
59146;DHT22;44928;53.074;6.646;2022-12-18T14:01:57;-0.20;99.90
59146;DHT22;44928;53.074;6.646;2022-12-18T14:04:26;-0.10;99.90
59146;DHT22;44928;53.074;6.646;2022-12-18T14:06:56;-0.20;99.90
59146;DHT22;44928;53.074;6.646;2022-12-18T14:09:28;-0.20;99.90
59146;DHT22;44928;53.074;6.646;2022-12-18T14:11:56;-0.20;99.90
59146;DHT22;44928;53.074;6.646;2022-12-18T14:14:45;-0.20;99.90
59146;DHT22;44928;53.074;6.646;2022-12-18T14:17:13;-0.20;99.90
59146;DHT22;44928;53.074;6.646;2022-12-18T14:19:48;-0.20;99.90
59146;DHT22;44928;53.074;6.646;2022-12-18T14:22:23;-0.20;99.90
59146;DHT22;44928;53.074;6.646;2022-12-18T14:30:41;-0.20;99.90
59146;DHT22;44928;53.074;6.646;2022-12-18T14:33:19;-0.20;99.90
59146;DHT22;44928;53.074;6.646;2022-12-18T14:35:58;-0.20;99.90
59146;DHT22;44928;53.074;6.646;2022-12-18T14:38:28;-0.20;99.90
59146;DHT22;44928;53.074;6.646;2022-12-18T14:41:02;-0.20;99.90
59146;DHT22;44928;53.074;6.646;2022-12-18T14:43:34;-0.20;99.90
59146;DHT22;44928;53.074;6.646;2022-12-18T14:46:01;-0.20;99.90
59146;DHT22;44928;53.074;6.646;2022-12-18T14:51:25;-0.20;99.90
59146;DHT22;44928;53.074;6.646;2022-12-18T14:54:05;-0.30;99.90
59146;DHT22;44928;53.074;6.646;2022-12-18T14:56:36;-0.30;99.90
59146;DHT22;44928;53.074;6.646;2022-12-18T14:59:03;-0.30;99.90
59146;DHT22;44928;53.074;6.646;2022-12-18T15:01:33;-0.30;99.90
59146;DHT22;44928;53.074;6.646;2022-12-18T15:04:01;-0.30;99.90
59146;DHT22;44928;53.074;6.646;2022-12-18T15:06:34;-0.30;99.90
59146;DHT22;44928;53.074;6.646;2022-12-18T15:09:06;-0.30;99.90
59146;DHT22;44928;53.074;6.646;2022-12-18T15:11:46;-0.30;99.90
59146;DHT22;44928;53.074;6.646;2022-12-18T15:17:16;-0.30;99.90
59146;DHT22;44928;53.074;6.646;2022-12-18T15:19:44;-0.40;99.90
59146;DHT22;44928;53.074;6.646;2022-12-18T15:22:29;-0.30;99.90
59146;DHT22;44928;53.074;6.646;2022-12-18T15:24:56;-0.40;99.90
59146;DHT22;44928;53.074;6.646;2022-12-18T15:27:32;-0.40;99.90
59146;DHT22;44928;53.074;6.646;2022-12-18T15:32:39;-0.50;99.90
59146;DHT22;44928;53.074;6.646;2022-12-18T15:37:37;-0.50;99.90
59146;DHT22;44928;53.074;6.646;2022-12-18T15:40:04;-0.50;99.90
59146;DHT22;44928;53.074;6.646;2022-12-18T15:42:30;-0.50;99.90
59146;DHT22;44928;53.074;6.646;2022-12-18T15:45:14;-0.50;99.90
59146;DHT22;44928;53.074;6.646;2022-12-18T15:47:40;-0.50;99.90
59146;DHT22;44928;53.074;6.646;2022-12-18T15:50:09;-0.60;99.90
59146;DHT22;44928;53.074;6.646;2022-12-18T15:52:46;-0.60;99.90
59146;DHT22;44928;53.074;6.646;2022-12-18T15:55:19;-0.60;99.90
59146;DHT22;44928;53.074;6.646;2022-12-18T15:58:04;-0.60;99.90
59146;DHT22;44928;53.074;6.646;2022-12-18T16:00:30;-0.60;99.90
59146;DHT22;44928;53.074;6.646;2022-12-18T16:02:56;-0.70;99.90
59146;DHT22;44928;53.074;6.646;2022-12-18T16:05:23;-0.70;99.90
59146;DHT22;44928;53.074;6.646;2022-12-18T16:07:49;-0.70;99.90
59146;DHT22;44928;53.074;6.646;2022-12-18T16:10:14;-0.60;99.90
59146;DHT22;44928;53.074;6.646;2022-12-18T16:12:41;-0.60;99.90
59146;DHT22;44928;53.074;6.646;2022-12-18T16:15:09;-0.60;99.90
59146;DHT22;44928;53.074;6.646;2022-12-18T16:17:36;-0.70;99.90
59146;DHT22;44928;53.074;6.646;2022-12-18T16:20:01;-0.70;99.90
59146;DHT22;44928;53.074;6.646;2022-12-18T16:22:29;-0.70;99.90
59146;DHT22;44928;53.074;6.646;2022-12-18T16:24:56;-0.70;99.90
59146;DHT22;44928;53.074;6.646;2022-12-18T16:27:23;-0.70;99.90
59146;DHT22;44928;53.074;6.646;2022-12-18T16:29:49;-0.60;99.90
59146;DHT22;44928;53.074;6.646;2022-12-18T16:32:18;-0.60;99.90
59146;DHT22;44928;53.074;6.646;2022-12-18T16:34:44;-0.60;99.90
59146;DHT22;44928;53.074;6.646;2022-12-18T16:37:12;-0.60;99.90
59146;DHT22;44928;53.074;6.646;2022-12-18T16:39:39;-0.60;99.90
59146;DHT22;44928;53.074;6.646;2022-12-18T16:42:14;-0.60;99.90
59146;DHT22;44928;53.074;6.646;2022-12-18T16:44:42;-0.60;99.90
59146;DHT22;44928;53.074;6.646;2022-12-18T16:47:08;-0.60;99.90
59146;DHT22;44928;53.074;6.646;2022-12-18T16:49:35;-0.60;99.90
59146;DHT22;44928;53.074;6.646;2022-12-18T16:52:00;-0.60;99.90
59146;DHT22;44928;53.074;6.646;2022-12-18T16:54:26;-0.60;99.90
59146;DHT22;44928;53.074;6.646;2022-12-18T16:56:55;-0.60;99.90
59146;DHT22;44928;53.074;6.646;2022-12-18T16:59:21;-0.60;99.90
59146;DHT22;44928;53.074;6.646;2022-12-18T17:01:47;-0.50;99.90
59146;DHT22;44928;53.074;6.646;2022-12-18T17:04:13;-0.60;99.90
59146;DHT22;44928;53.074;6.646;2022-12-18T17:06:41;-0.50;99.90
59146;DHT22;44928;53.074;6.646;2022-12-18T17:09:13;-0.50;99.90
59146;DHT22;44928;53.074;6.646;2022-12-18T17:11:42;-0.50;99.90
59146;DHT22;44928;53.074;6.646;2022-12-18T17:14:16;-0.50;99.90
59146;DHT22;44928;53.074;6.646;2022-12-18T17:16:42;-0.50;99.90
59146;DHT22;44928;53.074;6.646;2022-12-18T17:19:08;-0.50;99.90
59146;DHT22;44928;53.074;6.646;2022-12-18T17:21:34;-0.50;99.90
59146;DHT22;44928;53.074;6.646;2022-12-18T17:24:00;-0.50;99.90
59146;DHT22;44928;53.074;6.646;2022-12-18T17:26:26;-0.50;99.90
59146;DHT22;44928;53.074;6.646;2022-12-18T17:28:52;-0.50;99.90
59146;DHT22;44928;53.074;6.646;2022-12-18T17:31:22;-0.50;99.90
59146;DHT22;44928;53.074;6.646;2022-12-18T17:33:48;-0.50;99.90
59146;DHT22;44928;53.074;6.646;2022-12-18T17:36:14;-0.50;99.90
59146;DHT22;44928;53.074;6.646;2022-12-18T17:38:40;-0.40;99.90
59146;DHT22;44928;53.074;6.646;2022-12-18T17:41:07;-0.50;99.90
59146;DHT22;44928;53.074;6.646;2022-12-18T17:43:34;-0.50;99.90
59146;DHT22;44928;53.074;6.646;2022-12-18T17:46:04;-0.50;99.90
59146;DHT22;44928;53.074;6.646;2022-12-18T17:48:31;-0.50;99.90
59146;DHT22;44928;53.074;6.646;2022-12-18T17:51:05;-0.40;99.90
59146;DHT22;44928;53.074;6.646;2022-12-18T17:53:32;-0.40;99.90
59146;DHT22;44928;53.074;6.646;2022-12-18T17:55:58;-0.40;99.90
59146;DHT22;44928;53.074;6.646;2022-12-18T17:58:30;-0.40;99.90
59146;DHT22;44928;53.074;6.646;2022-12-18T18:00:58;-0.40;99.90
59146;DHT22;44928;53.074;6.646;2022-12-18T18:03:24;-0.40;99.90